Station Historical Data
Daily Summary for May 1, 2017 Units:  English    Metric   Both
« Previous Day
Next Day »
Daily Weekly Monthly Yearly Custom
  High: Low: Average:
Temperature: 68.3 °F 46.4 °F 57.3 °F
Dew Point: 65.6 °F 43.9 °F 54.3 °F
Humidity: 94% 81% 90%
Wind Speed: 15.0mph 0.0mph 2.7mph
Wind Gust: 26.0mph - -
Wind- - South
Pressure: 29.90 in 29.45 in -
Precipitation: 1.53 in    
Historical Graphs
 
 
Tabular Data for May 1, 2017
Time Temperature Dew Point Pressure Wind Wind Speed Wind Gust Humidity Rainfall Rate (Hourly)
00:00 46.4 °F 43.9 °F 29.90 in ENE 3.0 mph 6.0 mph 91% 0.13 in
00:05 46.6 °F 44.1 °F 29.90 in ENE 2.0 mph 6.0 mph 91% 0.13 in
00:10 46.8 °F 44.3 °F 29.89 in ESE 3.0 mph 7.0 mph 91% 0.13 in
00:15 46.8 °F 44.3 °F 29.89 in SE 3.0 mph 7.0 mph 91% 0.13 in
00:20 46.9 °F 44.4 °F 29.88 in East 5.0 mph 6.0 mph 91% 0.17 in
00:25 47.0 °F 44.5 °F 29.88 in ESE 3.0 mph 5.0 mph 91% 0.18 in
00:30 47.0 °F 44.8 °F 29.88 in ESE 3.0 mph 8.0 mph 92% 0.18 in
00:35 47.0 °F 44.8 °F 29.88 in SSE 5.0 mph 8.0 mph 92% 0.18 in
00:40 46.9 °F 44.7 °F 29.87 in SE 3.0 mph 8.0 mph 92% 0.18 in
00:45 46.8 °F 44.6 °F 29.88 in SE 3.0 mph 7.0 mph 92% 0.18 in
00:50 46.9 °F 44.7 °F 29.87 in SE 3.0 mph 6.0 mph 92% 0.18 in
00:55 46.9 °F 44.7 °F 29.87 in SE 3.0 mph 8.0 mph 92% 0.16 in
01:00 47.0 °F 44.8 °F 29.86 in ESE 3.0 mph 4.0 mph 92% 0.10 in
01:05 47.1 °F 44.9 °F 29.86 in SE 3.0 mph 7.0 mph 92% 0.08 in
01:10 47.1 °F 44.9 °F 29.85 in Calm   5.0 mph 92% 0.06 in
01:15 47.1 °F 44.9 °F 29.84 in ESE 2.0 mph 5.0 mph 92% 0.05 in
01:20 47.3 °F 45.1 °F 29.84 in SE 3.0 mph 7.0 mph 92% 0.01 in
01:25 47.3 °F 45.1 °F 29.84 in NE 2.0 mph 5.0 mph 92% 0.00 in
01:30 47.3 °F 45.1 °F 29.84 in SE 3.0 mph 5.0 mph 92% 0.00 in
01:35 47.4 °F 45.2 °F 29.83 in ESE 8.0 mph 8.0 mph 92% 0.00 in
01:40 47.5 °F 45.3 °F 29.83 in East 3.0 mph 8.0 mph 92% 0.00 in
01:45 47.6 °F 45.7 °F 29.82 in SE 2.0 mph 8.0 mph 93% 0.00 in
01:50 47.7 °F 45.8 °F 29.82 in SE 2.0 mph 7.0 mph 93% 0.00 in
01:55 47.9 °F 46.0 °F 29.82 in SE 2.0 mph 5.0 mph 93% 0.00 in
02:00 48.0 °F 46.1 °F 29.81 in SE 3.0 mph 5.0 mph 93% 0.00 in
02:05 48.1 °F 46.2 °F 29.81 in SSE 1.0 mph 5.0 mph 93% 0.00 in
02:10 48.3 °F 46.4 °F 29.81 in SE 1.0 mph 4.0 mph 93% 0.00 in
02:15 48.4 °F 46.5 °F 29.81 in SE 1.0 mph 4.0 mph 93% 0.00 in
02:20 48.5 °F 46.6 °F 29.80 in SE 2.0 mph 4.0 mph 93% 0.00 in
02:25 48.6 °F 46.7 °F 29.79 in SSE 1.0 mph 4.0 mph 93% 0.00 in
02:30 48.8 °F 46.9 °F 29.79 in Calm   3.0 mph 93% 0.00 in
02:35 48.9 °F 47.0 °F 29.78 in SE 1.0 mph 2.0 mph 93% 0.00 in
02:40 49.1 °F 47.2 °F 29.78 in Calm   3.0 mph 93% 0.00 in
02:45 49.3 °F 47.4 °F 29.78 in Calm   3.0 mph 93% 0.00 in
02:50 49.5 °F 47.6 °F 29.78 in Calm     93% 0.00 in
02:55 49.7 °F 47.8 °F 29.78 in Calm     93% 0.00 in
03:00 49.9 °F 48.0 °F 29.78 in Calm     93% 0.00 in
03:05 50.1 °F 48.2 °F 29.78 in Calm     93% 0.00 in
03:10 50.3 °F 48.4 °F 29.78 in Calm     93% 0.00 in
03:15 50.4 °F 48.5 °F 29.78 in Calm     93% 0.00 in
03:20 50.6 °F 48.7 °F 29.78 in Calm     93% 0.00 in
03:25 50.7 °F 48.7 °F 29.78 in Calm     93% 0.00 in
03:30 50.7 °F 48.7 °F 29.77 in Calm     93% 0.00 in
03:35 50.8 °F 48.8 °F 29.77 in Calm     93% 0.00 in
03:40 51.0 °F 49.0 °F 29.77 in Calm     93% 0.00 in
03:45 51.1 °F 49.1 °F 29.76 in Calm     93% 0.00 in
03:50 51.3 °F 49.3 °F 29.76 in Calm     93% 0.00 in
03:55 51.4 °F 49.4 °F 29.76 in Calm     93% 0.00 in
04:00 51.5 °F 49.5 °F 29.76 in Calm     93% 0.00 in
04:05 51.5 °F 49.5 °F 29.76 in NE 1.0 mph 5.0 mph 93% 0.00 in
04:10 51.5 °F 49.5 °F 29.76 in Calm   3.0 mph 93% 0.00 in
04:15 51.5 °F 49.5 °F 29.76 in Calm   2.0 mph 93% 0.00 in
04:20 51.4 °F 49.4 °F 29.76 in Calm   2.0 mph 93% 0.00 in
04:25 51.5 °F 49.5 °F 29.75 in Calm   2.0 mph 93% 0.00 in
04:30 51.5 °F 49.5 °F 29.75 in Calm     93% 0.00 in
04:35 51.5 °F 49.5 °F 29.75 in Calm     93% 0.00 in
04:40 51.5 °F 49.5 °F 29.75 in Calm     93% 0.00 in
04:45 51.6 °F 49.6 °F 29.74 in NE 1.0 mph 3.0 mph 93% 0.00 in
04:50 51.6 °F 49.6 °F 29.74 in Calm   2.0 mph 93% 0.00 in
04:55 51.6 °F 49.6 °F 29.74 in Calm   2.0 mph 93% 0.00 in
05:00 51.7 °F 49.7 °F 29.74 in Calm   2.0 mph 93% 0.00 in
05:05 51.7 °F 49.7 °F 29.74 in Calm     93% 0.00 in
05:10 51.7 °F 49.7 °F 29.74 in Calm     93% 0.00 in
05:15 51.8 °F 49.8 °F 29.74 in Calm     93% 0.00 in
05:20 51.7 °F 49.7 °F 29.74 in Calm     93% 0.00 in
05:25 51.7 °F 49.7 °F 29.74 in Calm   2.0 mph 93% 0.00 in
05:30 51.6 °F 49.6 °F 29.74 in Calm   3.0 mph 93% 0.00 in
05:35 51.6 °F 49.6 °F 29.74 in NE 1.0 mph 3.0 mph 93% 0.00 in
05:40 51.5 °F 49.5 °F 29.75 in NNE 1.0 mph 4.0 mph 93% 0.00 in
05:45 51.2 °F 49.2 °F 29.75 in NNW 2.0 mph 5.0 mph 93% 0.00 in
05:50 50.9 °F 48.9 °F 29.75 in NNW 2.0 mph 3.0 mph 93% 0.00 in
05:55 50.7 °F 48.7 °F 29.75 in NNW 2.0 mph 5.0 mph 93% 0.00 in
06:00 50.5 °F 48.6 °F 29.75 in North 1.0 mph 5.0 mph 93% 0.00 in
06:05 50.3 °F 48.4 °F 29.75 in NNW 2.0 mph 3.0 mph 93% 0.00 in
06:10 50.2 °F 48.3 °F 29.75 in NNW 1.0 mph 5.0 mph 93% 0.00 in
06:15 50.1 °F 48.2 °F 29.75 in Calm   3.0 mph 93% 0.00 in
06:20 50.2 °F 48.3 °F 29.74 in NNW 1.0 mph 3.0 mph 93% 0.00 in
06:25 50.1 °F 48.2 °F 29.74 in North 2.0 mph 4.0 mph 93% 0.00 in
06:30 50.2 °F 48.3 °F 29.74 in NE 2.0 mph 4.0 mph 93% 0.00 in
06:35 50.3 °F 48.4 °F 29.74 in ENE 2.0 mph 4.0 mph 93% 0.00 in
06:40 50.4 °F 48.5 °F 29.74 in ENE 2.0 mph 4.0 mph 93% 0.00 in
06:45 50.5 °F 48.6 °F 29.74 in ENE 1.0 mph 3.0 mph 93% 0.00 in
06:50 50.7 °F 49.0 °F 29.73 in Calm   3.0 mph 94% 0.00 in
06:55 50.8 °F 48.8 °F 29.73 in ENE 2.0 mph 3.0 mph 93% 0.00 in
07:00 50.8 °F 48.8 °F 29.73 in Calm   3.0 mph 93% 0.00 in
07:05 50.9 °F 48.9 °F 29.73 in Calm     93% 0.00 in
07:10 51.1 °F 49.1 °F 29.74 in Calm     93% 0.00 in
07:15 51.2 °F 49.2 °F 29.73 in Calm     93% 0.00 in
07:20 51.4 °F 49.4 °F 29.74 in Calm     93% 0.00 in
07:25 51.5 °F 49.5 °F 29.74 in Calm   2.0 mph 93% 0.00 in
07:30 51.7 °F 49.7 °F 29.74 in Calm   3.0 mph 93% 0.00 in
07:35 51.9 °F 49.9 °F 29.73 in Calm   3.0 mph 93% 0.00 in
07:40 51.9 °F 49.9 °F 29.73 in Calm     93% 0.00 in
07:45 52.3 °F 50.3 °F 29.73 in Calm     93% 0.00 in
07:50 52.5 °F 50.5 °F 29.73 in Calm     93% 0.00 in
07:55 52.8 °F 50.5 °F 29.73 in Calm   3.0 mph 92% 0.00 in
08:00 53.1 °F 50.8 °F 29.73 in Calm   3.0 mph 92% 0.00 in
08:05 53.3 °F 51.0 °F 29.73 in Calm   2.0 mph 92% 0.00 in
08:10 53.6 °F 51.3 °F 29.73 in Calm     92% 0.00 in
08:15 53.9 °F 51.6 °F 29.73 in Calm     92% 0.00 in
08:20 54.3 °F 52.0 °F 29.73 in Calm     92% 0.00 in
08:25 54.3 °F 51.7 °F 29.73 in Calm   4.0 mph 91% 0.00 in
08:30 54.6 °F 52.3 °F 29.73 in Calm   3.0 mph 92% 0.00 in
08:35 55.1 °F 52.5 °F 29.72 in ENE 2.0 mph 3.0 mph 91% 0.00 in
08:40 55.4 °F 52.8 °F 29.73 in ENE 1.0 mph 3.0 mph 91% 0.00 in
08:45 55.9 °F 53.3 °F 29.73 in Calm   2.0 mph 91% 0.00 in
08:50 56.6 °F 54.0 °F 29.73 in Calm   2.0 mph 91% 0.00 in
08:55 57.3 °F 54.7 °F 29.72 in Calm     91% 0.00 in
09:00 57.9 °F 55.3 °F 29.73 in Calm     91% 0.00 in
09:05 58.3 °F 55.4 °F 29.73 in Calm   2.0 mph 90% 0.00 in
09:10 58.8 °F 55.9 °F 29.72 in Calm   2.0 mph 90% 0.00 in
09:15 59.5 °F 56.3 °F 29.72 in ENE 1.0 mph 3.0 mph 89% 0.00 in
09:20 59.9 °F 56.6 °F 29.72 in Calm   1.0 mph 89% 0.00 in
09:25 60.5 °F 57.2 °F 29.72 in Calm     89% 0.00 in
09:30 61.0 °F 57.7 °F 29.72 in Calm     89% 0.00 in
09:35 61.6 °F 58.3 °F 29.72 in Calm     89% 0.00 in
09:40 62.0 °F 58.4 °F 29.72 in Calm     88% 0.00 in
09:45 62.6 °F 59.0 °F 29.72 in Calm     88% 0.00 in
09:50 63.3 °F 59.4 °F 29.71 in Calm     87% 0.00 in
09:55 64.1 °F 59.8 °F 29.71 in Calm     86% 0.00 in
10:00 64.5 °F 59.9 °F 29.72 in Calm   3.0 mph 85% 0.01 in
10:05 64.4 °F 60.1 °F 29.72 in SSW 1.0 mph 6.0 mph 86% 0.01 in
10:10 64.6 °F 60.3 °F 29.72 in SSW 2.0 mph 6.0 mph 86% 0.01 in
10:15 64.7 °F 60.4 °F 29.71 in SW 1.0 mph 5.0 mph 86% 0.02 in
10:20 65.0 °F 60.7 °F 29.71 in SSW 1.0 mph 6.0 mph 86% 0.02 in
10:25 65.2 °F 60.9 °F 29.71 in SSW 3.0 mph 6.0 mph 86% 0.02 in
10:30 65.2 °F 61.2 °F 29.71 in SW 2.0 mph 6.0 mph 87% 0.03 in
10:35 65.2 °F 61.2 °F 29.71 in WSW 5.0 mph 7.0 mph 87% 0.05 in
10:40 65.2 °F 61.6 °F 29.72 in WSW 2.0 mph 8.0 mph 88% 0.06 in
10:45 65.1 °F 61.5 °F 29.73 in SW 3.0 mph 8.0 mph 88% 0.08 in
10:50 64.9 °F 61.6 °F 29.72 in WSW 2.0 mph 6.0 mph 89% 0.14 in
10:55 64.7 °F 61.4 °F 29.71 in SW 3.0 mph 6.0 mph 89% 0.19 in
11:00 64.5 °F 61.5 °F 29.71 in SW 2.0 mph 5.0 mph 90% 0.20 in
11:05 64.6 °F 61.9 °F 29.71 in SW 2.0 mph 4.0 mph 91% 0.20 in
11:10 64.8 °F 62.1 °F 29.70 in SW 2.0 mph 5.0 mph 91% 0.21 in
11:15 65.0 °F 62.6 °F 29.70 in Calm   2.0 mph 92% 0.20 in
11:20 65.1 °F 62.4 °F 29.70 in SSW 2.0 mph 4.0 mph 91% 0.20 in
11:25 65.4 °F 62.7 °F 29.70 in Calm   3.0 mph 91% 0.20 in
11:30 65.4 °F 63.0 °F 29.69 in Calm   3.0 mph 92% 0.19 in
11:35 65.6 °F 63.2 °F 29.69 in Calm   3.0 mph 92% 0.18 in
11:40 65.7 °F 63.3 °F 29.67 in South 1.0 mph 3.0 mph 92% 0.17 in
11:45 65.7 °F 63.3 °F 29.68 in SSE 1.0 mph 3.0 mph 92% 0.15 in
11:50 65.6 °F 63.2 °F 29.68 in SSE 2.0 mph 3.0 mph 92% 0.11 in
11:55 65.6 °F 63.2 °F 29.68 in SSE 1.0 mph 3.0 mph 92% 0.06 in
12:00 65.8 °F 63.4 °F 29.68 in SSE 1.0 mph 3.0 mph 92% 0.05 in
12:05 66.1 °F 63.7 °F 29.67 in SSE 1.0 mph 4.0 mph 92% 0.05 in
12:10 66.4 °F 64.0 °F 29.67 in SE 2.0 mph 3.0 mph 92% 0.04 in
12:15 66.4 °F 64.0 °F 29.67 in Calm   4.0 mph 92% 0.04 in
12:20 66.5 °F 64.1 °F 29.67 in SE 3.0 mph 4.0 mph 92% 0.04 in
12:25 66.4 °F 64.0 °F 29.68 in South 1.0 mph 4.0 mph 92% 0.04 in
12:30 66.3 °F 63.9 °F 29.67 in SSE 2.0 mph 4.0 mph 92% 0.07 in
12:35 66.3 °F 63.9 °F 29.66 in SSE 2.0 mph 4.0 mph 92% 0.08 in
12:40 66.3 °F 63.9 °F 29.66 in SE 1.0 mph 4.0 mph 92% 0.09 in
12:45 66.6 °F 64.2 °F 29.66 in SE 1.0 mph 4.0 mph 92% 0.09 in
12:50 66.8 °F 64.4 °F 29.65 in SE 1.0 mph 5.0 mph 92% 0.07 in
12:55 67.1 °F 64.7 °F 29.65 in Calm   3.0 mph 92% 0.07 in
13:00 67.3 °F 64.9 °F 29.64 in SE 1.0 mph 4.0 mph 92% 0.06 in
13:05 67.4 °F 65.0 °F 29.63 in Calm   4.0 mph 92% 0.06 in
13:10 67.6 °F 65.2 °F 29.63 in SSE 1.0 mph 3.0 mph 92% 0.06 in
13:15 67.9 °F 65.2 °F 29.63 in Calm   4.0 mph 91% 0.06 in
13:20 67.9 °F 65.2 °F 29.63 in SSE 1.0 mph 4.0 mph 91% 0.07 in
13:25 68.0 °F 65.0 °F 29.62 in SSE 1.0 mph 5.0 mph 90% 0.07 in
13:30 68.1 °F 65.1 °F 29.62 in SSE 2.0 mph 5.0 mph 90% 0.04 in
13:35 68.1 °F 65.1 °F 29.60 in SSE 2.0 mph 5.0 mph 90% 0.02 in
13:45 68.2 °F 65.2 °F 29.60 in SSE 1.0 mph 5.0 mph 90% 0.01 in
13:50 68.3 °F 65.3 °F 29.59 in SE 2.0 mph 5.0 mph 90% 0.01 in
13:55 68.2 °F 65.2 °F 29.58 in ESE 3.0 mph 5.0 mph 90% 0.02 in
14:00 68.2 °F 65.5 °F 29.57 in East 2.0 mph 6.0 mph 91% 0.02 in
14:05 68.3 °F 65.6 °F 29.57 in Calm   1.0 mph 91% 0.02 in
14:10 68.1 °F 65.4 °F 29.56 in SE 2.0 mph 4.0 mph 91% 0.03 in
14:15 68.0 °F 65.3 °F 29.57 in Calm   3.0 mph 91% 0.03 in
14:20 68.0 °F 65.3 °F 29.56 in East 2.0 mph 5.0 mph 91% 0.02 in
14:25 67.9 °F 65.2 °F 29.55 in Calm   3.0 mph 91% 0.03 in
14:30 67.8 °F 65.1 °F 29.55 in East 1.0 mph 5.0 mph 91% 0.03 in
14:35 67.7 °F 65.0 °F 29.54 in East 2.0 mph 5.0 mph 91% 0.03 in
14:40 67.7 °F 65.0 °F 29.54 in East 2.0 mph 5.0 mph 91% 0.03 in
14:45 67.6 °F 64.9 °F 29.54 in East 2.0 mph 6.0 mph 91% 0.03 in
14:50 67.6 °F 64.9 °F 29.54 in East 2.0 mph 6.0 mph 91% 0.03 in
14:55 67.6 °F 64.9 °F 29.54 in East 1.0 mph 5.0 mph 91% 0.03 in
15:00 67.6 °F 64.9 °F 29.53 in ENE 1.0 mph 3.0 mph 91% 0.04 in
15:05 67.5 °F 64.8 °F 29.53 in ENE 1.0 mph 2.0 mph 91% 0.05 in
15:10 67.5 °F 65.1 °F 29.53 in ENE 2.0 mph 2.0 mph 92% 0.05 in
15:15 67.4 °F 65.0 °F 29.52 in ENE 2.0 mph 2.0 mph 92% 0.06 in
15:20 67.3 °F 64.9 °F 29.51 in ENE 1.0 mph 3.0 mph 92% 0.06 in
15:25 67.2 °F 64.8 °F 29.51 in ENE 1.0 mph 3.0 mph 92% 0.05 in
15:30 67.1 °F 64.7 °F 29.50 in North 1.0 mph 3.0 mph 92% 0.05 in
15:35 67.1 °F 64.7 °F 29.50 in NNE 2.0 mph 3.0 mph 92% 0.06 in
15:40 66.3 °F 63.3 °F 29.60 in West 5.0 mph 23.0 mph 90% 0.18 in
15:45 63.4 °F 60.1 °F 29.61 in WSW 11.0 mph 23.0 mph 89% 0.41 in
15:50 62.0 °F 59.0 °F 29.62 in WSW 12.0 mph 26.0 mph 90% 0.62 in
15:55 61.1 °F 58.1 °F 29.62 in West 13.0 mph 22.0 mph 90% 0.64 in
16:00 60.1 °F 57.2 °F 29.60 in West 15.0 mph 24.0 mph 90% 0.65 in
16:05 59.2 °F 56.3 °F 29.57 in West 11.0 mph 24.0 mph 90% 0.67 in
16:10 58.6 °F 55.7 °F 29.56 in West 9.0 mph 19.0 mph 90% 0.68 in
16:20 58.3 °F 55.4 °F 29.57 in SW 4.0 mph 14.0 mph 90% 0.70 in
16:25 58.4 °F 55.8 °F 29.56 in SW 5.0 mph 9.0 mph 91% 0.71 in
16:30 58.4 °F 55.8 °F 29.57 in South 7.0 mph 13.0 mph 91% 0.72 in
16:35 58.5 °F 55.9 °F 29.57 in SSW 5.0 mph 13.0 mph 91% 0.72 in
16:40 58.5 °F 55.9 °F 29.56 in SSE 4.0 mph 10.0 mph 91% 0.61 in
16:45 58.4 °F 55.8 °F 29.56 in South 5.0 mph 12.0 mph 91% 0.39 in
16:50 58.3 °F 55.7 °F 29.55 in SE 4.0 mph 10.0 mph 91% 0.19 in
16:55 58.3 °F 56.0 °F 29.55 in SSE 7.0 mph 10.0 mph 92% 0.19 in
17:00 58.5 °F 56.2 °F 29.55 in SW 5.0 mph 9.0 mph 92% 0.18 in
17:05 58.6 °F 56.3 °F 29.54 in South 5.0 mph 11.0 mph 92% 0.18 in
17:10 58.5 °F 55.9 °F 29.50 in SSE 5.0 mph 11.0 mph 91% 0.17 in
17:15 58.4 °F 55.8 °F 29.50 in SSE 5.0 mph 10.0 mph 91% 0.16 in
17:20 58.4 °F 55.8 °F 29.50 in SE 4.0 mph 8.0 mph 91% 0.15 in
17:25 58.5 °F 55.9 °F 29.50 in SE 4.0 mph 9.0 mph 91% 0.15 in
17:30 58.6 °F 56.0 °F 29.49 in South 3.0 mph 8.0 mph 91% 0.14 in
17:35 58.6 °F 56.0 °F 29.50 in SE 4.0 mph 9.0 mph 91% 0.13 in
17:40 58.8 °F 55.9 °F 29.48 in SSE 4.0 mph 9.0 mph 90% 0.12 in
17:45 58.8 °F 55.9 °F 29.47 in SE 4.0 mph 10.0 mph 90% 0.11 in
17:50 59.1 °F 56.2 °F 29.46 in SE 8.0 mph 14.0 mph 90% 0.10 in
17:55 59.2 °F 56.0 °F 29.47 in SSE 9.0 mph 9.0 mph 89% 0.07 in
18:00 59.4 °F 55.8 °F 29.46 in SE 3.0 mph 9.0 mph 88% 0.06 in
18:05 59.6 °F 55.7 °F 29.47 in SSE 5.0 mph 13.0 mph 87% 0.03 in
18:10 59.7 °F 55.8 °F 29.46 in SSE 5.0 mph 13.0 mph 87% 0.02 in
18:15 59.9 °F 55.7 °F 29.46 in SSE 4.0 mph 9.0 mph 86% 0.01 in
18:20 60.0 °F 55.8 °F 29.45 in South 4.0 mph 9.0 mph 86% 0.01 in
18:25 60.2 °F 56.0 °F 29.45 in SSE 2.0 mph 12.0 mph 86% 0.00 in
18:30 60.7 °F 56.2 °F 29.45 in South 9.0 mph 12.0 mph 85% 0.00 in
18:35 61.1 °F 56.2 °F 29.46 in South 5.0 mph 12.0 mph 84% 0.00 in
18:40 61.3 °F 56.1 °F 29.47 in South 5.0 mph 11.0 mph 83% 0.00 in
18:45 61.3 °F 56.1 °F 29.47 in South 3.0 mph 10.0 mph 83% 0.00 in
18:50 61.6 °F 56.4 °F 29.48 in South 6.0 mph 12.0 mph 83% 0.00 in
18:55 61.9 °F 56.3 °F 29.48 in South 3.0 mph 13.0 mph 82% 0.00 in
19:00 62.1 °F 56.5 °F 29.49 in South 10.0 mph 10.0 mph 82% 0.00 in
19:05 62.2 °F 56.3 °F 29.48 in SSW 6.0 mph 12.0 mph 81% 0.00 in
19:10 62.3 °F 56.4 °F 29.49 in SSW 6.0 mph 12.0 mph 81% 0.00 in
19:15 62.3 °F 56.4 °F 29.49 in South 10.0 mph 17.0 mph 81% 0.00 in
19:20 62.3 °F 56.4 °F 29.49 in SW 5.0 mph 10.0 mph 81% 0.00 in
19:25 62.2 °F 56.3 °F 29.49 in WSW 10.0 mph 11.0 mph 81% 0.00 in
19:30 62.2 °F 56.3 °F 29.49 in WSW 5.0 mph 12.0 mph 81% 0.00 in
19:35 62.1 °F 56.2 °F 29.49 in SW 5.0 mph 12.0 mph 81% 0.00 in
19:40 62.0 °F 56.1 °F 29.49 in SW 5.0 mph 11.0 mph 81% 0.00 in
19:45 61.9 °F 56.0 °F 29.49 in SW 4.0 mph 9.0 mph 81% 0.00 in
19:50 61.7 °F 56.1 °F 29.49 in SSW 4.0 mph 10.0 mph 82% 0.00 in
19:55 61.8 °F 56.2 °F 29.49 in SW 4.0 mph 10.0 mph 82% 0.00 in
20:00 61.6 °F 56.0 °F 29.49 in SW 4.0 mph 9.0 mph 82% 0.00 in
20:05 61.6 °F 56.0 °F 29.50 in SW 3.0 mph 9.0 mph 82% 0.00 in
20:10 61.6 °F 56.4 °F 29.51 in SW 4.0 mph 7.0 mph 83% 0.00 in
20:15 61.3 °F 56.1 °F 29.50 in SSW 5.0 mph 11.0 mph 83% 0.01 in
20:20 60.6 °F 55.7 °F 29.50 in SSW 7.0 mph 12.0 mph 84% 0.01 in
20:25 60.0 °F 55.5 °F 29.50 in SW 3.0 mph 10.0 mph 85% 0.01 in
20:30 59.3 °F 55.1 °F 29.49 in SW 1.0 mph 9.0 mph 86% 0.01 in
20:35 58.9 °F 54.7 °F 29.49 in SW 4.0 mph 9.0 mph 86% 0.01 in
20:40 58.7 °F 54.8 °F 29.49 in SW 4.0 mph 7.0 mph 87% 0.01 in
20:45 58.5 °F 54.6 °F 29.49 in SW 3.0 mph 6.0 mph 87% 0.01 in
20:50 58.3 °F 54.8 °F 29.49 in SW 3.0 mph 6.0 mph 88% 0.01 in
20:55 58.2 °F 54.7 °F 29.49 in SW 2.0 mph 6.0 mph 88% 0.01 in
21:00 58.2 °F 54.7 °F 29.49 in SSW 2.0 mph 6.0 mph 88% 0.01 in
21:05 58.1 °F 54.6 °F 29.49 in SSW 3.0 mph 7.0 mph 88% 0.01 in
21:10 58.2 °F 54.7 °F 29.50 in SW 2.0 mph 6.0 mph 88% 0.01 in
21:15 58.2 °F 54.7 °F 29.50 in SW 1.0 mph 4.0 mph 88% 0.00 in
21:20 58.2 °F 54.7 °F 29.50 in WSW 3.0 mph 5.0 mph 88% 0.00 in
21:30 57.9 °F 54.4 °F 29.52 in West 4.0 mph 9.0 mph 88% 0.02 in
21:35 57.4 °F 53.9 °F 29.52 in West 5.0 mph 9.0 mph 88% 0.05 in
21:40 56.9 °F 53.4 °F 29.52 in WSW 5.0 mph 12.0 mph 88% 0.11 in
21:45 56.5 °F 53.0 °F 29.52 in WSW 6.0 mph 12.0 mph 88% 0.11 in
21:50 56.3 °F 52.8 °F 29.52 in SW 5.0 mph 11.0 mph 88% 0.12 in
21:55 56.1 °F 52.9 °F 29.53 in SSW 5.0 mph 9.0 mph 89% 0.12 in
22:00 55.9 °F 52.7 °F 29.53 in WSW 3.0 mph 10.0 mph 89% 0.12 in
22:05 55.8 °F 52.6 °F 29.54 in SW 6.0 mph 15.0 mph 89% 0.12 in
22:10 55.9 °F 52.7 °F 29.55 in SW 6.0 mph 15.0 mph 89% 0.12 in
22:15 55.7 °F 52.5 °F 29.55 in SW 7.0 mph 17.0 mph 89% 0.12 in
22:20 55.3 °F 51.8 °F 29.56 in WNW 8.0 mph 13.0 mph 88% 0.12 in
22:25 54.8 °F 51.0 °F 29.57 in SW 5.0 mph 13.0 mph 87% 0.12 in
22:30 54.2 °F 50.4 °F 29.57 in SW 8.0 mph 10.0 mph 87% 0.10 in
22:35 53.7 °F 49.9 °F 29.58 in SW 6.0 mph 10.0 mph 87% 0.06 in
22:40 53.3 °F 49.5 °F 29.57 in WSW 10.0 mph 15.0 mph 87% 0.01 in
22:45 52.8 °F 49.0 °F 29.57 in SW 6.0 mph 11.0 mph 87% 0.01 in
22:50 52.7 °F 49.2 °F 29.56 in West 9.0 mph 11.0 mph 88% 0.00 in
22:55 52.6 °F 49.1 °F 29.56 in West 7.0 mph 16.0 mph 88% 0.00 in
23:00 52.8 °F 48.7 °F 29.56 in West 12.0 mph 15.0 mph 86% 0.00 in
23:05 53.0 °F 48.3 °F 29.56 in WSW 8.0 mph 15.0 mph 84% 0.00 in
23:10 53.1 °F 48.1 °F 29.56 in WSW 7.0 mph 17.0 mph 83% 0.00 in
23:15 53.1 °F 47.7 °F 29.57 in WSW 7.0 mph 17.0 mph 82% 0.00 in
23:20 53.0 °F 47.7 °F 29.57 in WSW 7.0 mph 14.0 mph 82% 0.00 in
23:25 52.9 °F 47.2 °F 29.57 in WSW 8.0 mph 20.0 mph 81% 0.00 in
23:30 52.5 °F 47.2 °F 29.58 in SW 6.0 mph 17.0 mph 82% 0.00 in
23:35 52.1 °F 46.8 °F 29.57 in WSW 7.0 mph 17.0 mph 82% 0.00 in
23:40 51.8 °F 46.5 °F 29.57 in WSW 7.0 mph 14.0 mph 82% 0.00 in
23:45 51.5 °F 46.5 °F 29.57 in WSW 8.0 mph 12.0 mph 83% 0.00 in
23:50 51.3 °F 46.3 °F 29.57 in SW 4.0 mph 14.0 mph 83% 0.00 in
23:55 51.2 °F 46.2 °F 29.57 in SSW 5.0 mph 15.0 mph 83% 0.00 in
Buffalo, New York, USA
Compliments of Weather Underground - 2.5 mb